createdAt,value
2022-09-03T00:04:15.679Z,100943.22
2022-09-03T00:09:30.591Z,100946.63
2022-09-03T00:14:38.794Z,100940.44
2022-09-03T00:19:48.083Z,100941.19
2022-09-03T00:24:53.293Z,100940.44
2022-09-03T00:30:03.622Z,100941.19
2022-09-03T00:35:16.887Z,100940.31
2022-09-03T00:40:36.264Z,100931.53
2022-09-03T00:45:48.441Z,100927.91
2022-09-03T00:51:10.653Z,100945.34
2022-09-03T00:56:22.146Z,100940.00
2022-09-03T01:01:35.702Z,100939.94
2022-09-03T01:06:48.586Z,100931.97
2022-09-03T01:12:00.826Z,100940.75
2022-09-03T01:17:14.580Z,100931.81
2022-09-03T01:22:38.534Z,100934.31
2022-09-03T01:28:00.655Z,100928.00
2022-09-03T01:33:14.155Z,100931.59
2022-09-03T01:38:28.223Z,100931.50
2022-09-03T01:43:48.101Z,100937.53
2022-09-03T01:48:59.933Z,100925.97
2022-09-03T01:54:42.305Z,100929.47
2022-09-03T01:59:54.373Z,100936.38
2022-09-03T02:05:01.902Z,100936.22
2022-09-03T02:10:08.943Z,100937.03
2022-09-03T02:15:17.640Z,100927.41
2022-09-03T02:20:27.010Z,100931.69
2022-09-03T02:25:37.233Z,100919.38
2022-09-03T02:30:42.522Z,100921.91
2022-09-03T02:35:46.879Z,100920.06
2022-09-03T02:40:50.603Z,100922.66
2022-09-03T02:46:02.929Z,100923.47
2022-09-03T02:51:14.252Z,100922.47
2022-09-03T02:56:19.163Z,100919.72
2022-09-03T03:01:24.862Z,100922.31
2022-09-03T03:06:28.888Z,100922.31
2022-09-03T03:11:32.656Z,100911.72
2022-09-03T03:16:38.156Z,100921.09
2022-09-03T03:21:42.039Z,100922.78
2022-09-03T03:26:45.965Z,100921.03
2022-09-03T03:31:51.052Z,100913.19
2022-09-03T03:36:54.834Z,100927.94
2022-09-03T03:41:58.529Z,100927.69
2022-09-03T03:47:05.974Z,100922.16
2022-09-03T03:52:09.965Z,100918.72
2022-09-03T03:57:13.734Z,100913.56
2022-09-03T04:02:19.202Z,100917.84
2022-09-03T04:07:22.969Z,100922.03
2022-09-03T04:12:28.188Z,100915.94
2022-09-03T04:17:33.298Z,100913.31
2022-09-03T04:22:37.020Z,100916.72
2022-09-03T04:27:40.804Z,100910.31
2022-09-03T04:32:55.023Z,100912.81
2022-09-03T04:37:59.316Z,100921.66
2022-09-03T04:43:03.175Z,100918.00
2022-09-03T04:48:10.451Z,100918.03
2022-09-03T04:53:14.176Z,100917.00
2022-09-03T04:58:17.983Z,100922.41
2022-09-03T05:03:23.493Z,100921.34
2022-09-03T05:08:27.313Z,100923.91
2022-09-03T05:13:31.102Z,100921.31
2022-09-03T05:18:37.174Z,100924.69
2022-09-03T05:23:42.607Z,100917.69
2022-09-03T05:28:47.333Z,100915.16
2022-09-03T05:33:54.507Z,100916.78
2022-09-03T05:38:59.605Z,100923.78
2022-09-03T05:44:04.276Z,100914.28
2022-09-03T05:49:11.613Z,100925.59
2022-09-03T05:54:15.349Z,100924.78
2022-09-03T05:59:19.596Z,100924.00
2022-09-03T06:04:24.668Z,100929.25
2022-09-03T06:09:28.393Z,100920.53
2022-09-03T06:14:32.087Z,100930.38
2022-09-03T06:19:37.122Z,100932.22
2022-09-03T06:24:40.852Z,100926.22
2022-09-03T06:29:44.918Z,100940.97
2022-09-03T06:34:50.066Z,100941.94
2022-09-03T06:39:54.641Z,100938.53
2022-09-03T06:44:58.519Z,100935.88
2022-09-03T06:50:04.169Z,100942.94
2022-09-03T06:55:08.635Z,100942.09
2022-09-03T07:00:14.077Z,100938.75
2022-09-03T07:05:19.118Z,100944.03
2022-09-03T07:10:23.051Z,100942.28
2022-09-03T07:15:26.850Z,100938.06
2022-09-03T07:20:32.078Z,100953.97
2022-09-03T07:25:35.820Z,100948.09
2022-09-03T07:30:39.573Z,100944.81
2022-09-03T07:35:44.832Z,100940.81
2022-09-03T07:40:48.535Z,100943.81
2022-09-03T07:45:52.364Z,100941.53
2022-09-03T07:51:02.121Z,100947.91
2022-09-03T07:56:07.608Z,100954.34
2022-09-03T08:01:13.522Z,100951.25
2022-09-03T08:06:20.548Z,100956.78
2022-09-03T08:11:24.399Z,100947.47
2022-09-03T08:16:30.261Z,100944.16
2022-09-03T08:21:36.036Z,100952.22
2022-09-03T08:26:47.678Z,100957.59
2022-09-03T08:31:54.689Z,100955.94
2022-09-03T08:37:01.793Z,100953.34
2022-09-03T08:42:26.557Z,100956.91
2022-09-03T08:47:34.117Z,100964.84
2022-09-03T08:52:49.091Z,100965.72
2022-09-03T08:57:59.480Z,100963.91
2022-09-03T09:03:26.008Z,100970.06
2022-09-03T09:08:36.448Z,100972.63
2022-09-03T09:13:45.772Z,100968.16
2022-09-03T09:19:04.320Z,100987.38
2022-09-03T09:24:19.521Z,100975.81
2022-09-03T09:29:23.352Z,100976.34
2022-09-03T09:34:27.722Z,100973.41
2022-09-03T09:39:32.948Z,100964.34
2022-09-03T09:44:37.315Z,100961.41
2022-09-03T09:49:53.494Z,100965.09
2022-09-03T09:55:09.845Z,100955.50
2022-09-03T10:00:16.388Z,100959.41
2022-09-03T10:05:24.813Z,100963.88
2022-09-03T10:10:35.476Z,100951.22
2022-09-03T10:15:48.959Z,100952.09
2022-09-03T10:20:59.469Z,100949.06
2022-09-03T10:26:09.153Z,100939.78
2022-09-03T10:31:37.625Z,100936.81
2022-09-03T10:36:51.928Z,100940.50
2022-09-03T10:42:13.299Z,100935.72
2022-09-03T10:47:35.342Z,100935.34
2022-09-03T10:52:58.143Z,100931.28
2022-09-03T10:58:27.449Z,100933.31
2022-09-03T11:03:52.880Z,100931.16
2022-09-03T11:09:05.960Z,100936.13
2022-09-03T11:14:15.455Z,100933.38
2022-09-03T11:19:23.686Z,100936.69
2022-09-03T11:24:32.994Z,100926.81
2022-09-03T11:29:47.098Z,100929.69
2022-09-03T11:34:52.318Z,100939.34
2022-09-03T11:39:58.958Z,100929.16
2022-09-03T11:45:22.603Z,100931.06
2022-09-03T11:50:28.400Z,100932.56
2022-09-03T11:55:43.207Z,100928.78
2022-09-03T12:00:50.575Z,100926.56
2022-09-03T12:06:11.485Z,100922.97
2022-09-03T12:11:30.500Z,100915.94
2022-09-03T12:16:57.987Z,100918.84
2022-09-03T12:22:05.444Z,100927.47
2022-09-03T12:27:10.427Z,100922.00
2022-09-03T12:32:16.153Z,100919.16
2022-09-03T12:42:48.500Z,100910.25
2022-09-03T12:47:55.581Z,100903.28
2022-09-03T12:53:02.471Z,100910.12
2022-09-03T12:58:14.046Z,100907.69
2022-09-03T13:03:26.039Z,100911.03
2022-09-03T13:08:33.413Z,100909.88
2022-09-03T13:13:40.597Z,100900.75
2022-09-03T13:18:58.182Z,100891.41
2022-09-03T13:24:20.556Z,100888.53
2022-09-03T13:29:52.488Z,100887.34
2022-09-03T13:35:01.642Z,100880.72
2022-09-03T13:40:17.156Z,100889.91
2022-09-03T13:45:24.903Z,100885.06
2022-09-03T13:50:37.262Z,100894.91
2022-09-03T13:55:48.311Z,100887.44
2022-09-03T14:01:06.213Z,100900.63
2022-09-03T14:06:21.631Z,100892.66
2022-09-03T14:11:29.650Z,100888.31
2022-09-03T14:16:41.786Z,100891.50
2022-09-03T14:21:51.954Z,100898.75
2022-09-03T14:26:57.931Z,100890.87
2022-09-03T14:32:29.183Z,100904.53
2022-09-03T14:38:09.443Z,100898.72
2022-09-03T14:43:55.336Z,100895.81
2022-09-03T14:49:25.024Z,100887.63
2022-09-03T14:55:01.353Z,100892.75
2022-09-03T15:00:18.283Z,100882.25
2022-09-03T15:05:46.069Z,100886.59
2022-09-03T15:10:56.845Z,100886.78
2022-09-03T15:16:19.647Z,100886.53
2022-09-03T15:21:33.612Z,100882.50
2022-09-03T15:26:56.426Z,100886.03
2022-09-03T15:32:09.304Z,100889.53
2022-09-03T15:37:24.286Z,100886.88
2022-09-03T15:42:31.063Z,100883.75
2022-09-03T15:47:50.798Z,100890.13
2022-09-03T15:53:04.439Z,100894.16
2022-09-03T15:58:18.856Z,100894.28
2022-09-03T16:03:35.896Z,100890.53
2022-09-03T16:08:44.833Z,100893.75
2022-09-03T16:14:07.694Z,100893.59
2022-09-03T16:19:18.387Z,100900.59
2022-09-03T16:24:28.819Z,100905.81
2022-09-03T16:29:34.051Z,100904.59
2022-09-03T16:34:51.275Z,100898.22
2022-09-03T16:40:04.565Z,100902.69
2022-09-03T16:45:21.472Z,100898.91
2022-09-03T16:50:40.739Z,100904.87
2022-09-03T16:56:00.984Z,100907.16
2022-09-03T17:01:19.717Z,100911.28
2022-09-03T17:06:53.909Z,100917.69
2022-09-03T17:12:10.143Z,100916.53
2022-09-03T17:17:30.294Z,100920.12
2022-09-03T17:22:43.950Z,100925.78
2022-09-03T17:27:52.880Z,100931.63
2022-09-03T17:33:33.783Z,100937.56
2022-09-03T17:39:18.520Z,100935.78
2022-09-03T17:44:42.176Z,100939.97
2022-09-03T17:49:51.310Z,100953.44
2022-09-03T17:54:57.877Z,100954.38
2022-09-03T18:00:06.664Z,100957.97
2022-09-03T18:05:22.241Z,100967.78
2022-09-03T18:10:33.078Z,100978.03
2022-09-03T18:15:41.314Z,100984.75
2022-09-03T18:21:23.370Z,100991.34
2022-09-03T18:26:53.786Z,100994.56
2022-09-03T18:32:14.668Z,100999.97
2022-09-03T18:37:40.823Z,101014.22
2022-09-03T18:43:13.933Z,101011.28
2022-09-03T18:48:45.433Z,101017.94
2022-09-03T18:54:16.868Z,101024.78
2022-09-03T18:59:58.354Z,101039.34
2022-09-03T19:05:31.775Z,101041.22
2022-09-03T19:11:05.398Z,101050.50
2022-09-03T19:16:35.076Z,101054.37
2022-09-03T19:22:03.281Z,101067.81
2022-09-03T19:33:28.583Z,101076.25
2022-09-03T19:39:04.490Z,101088.09
2022-09-03T19:44:45.472Z,101088.56
2022-09-03T19:50:20.654Z,101097.31
2022-09-03T19:55:45.091Z,101093.31
2022-09-03T20:01:08.030Z,101096.94
2022-09-03T20:06:31.088Z,101106.66
2022-09-03T20:11:35.320Z,101101.78
2022-09-03T20:16:50.882Z,101100.38
2022-09-03T20:21:59.550Z,101104.06
2022-09-03T20:27:18.195Z,101100.88
2022-09-03T20:32:39.387Z,101112.53
2022-09-03T20:37:53.391Z,101102.84
2022-09-03T20:43:23.979Z,101109.00
2022-09-03T20:48:36.900Z,101115.28
2022-09-03T20:53:59.955Z,101117.09
2022-09-03T20:59:12.837Z,101128.78
2022-09-03T21:04:35.299Z,101121.75
2022-09-03T21:09:44.563Z,101127.16
2022-09-03T21:14:52.796Z,101129.91
2022-09-03T21:20:07.386Z,101132.66
2022-09-03T21:25:14.946Z,101136.34
2022-09-03T21:30:21.094Z,101140.00
2022-09-03T21:35:31.150Z,101141.91
2022-09-03T21:40:39.326Z,101142.94
2022-09-03T21:45:51.208Z,101144.84
2022-09-03T21:50:59.395Z,101148.44
2022-09-03T21:56:22.847Z,101156.47
2022-09-03T22:01:34.264Z,101163.53
2022-09-03T22:06:46.803Z,101171.50
2022-09-03T22:11:58.928Z,101166.25
2022-09-03T22:17:10.141Z,101171.59
2022-09-03T22:22:22.668Z,101170.81
2022-09-03T22:27:32.987Z,101166.50
2022-09-03T22:32:46.854Z,101163.06
2022-09-03T22:38:06.306Z,101168.38
2022-09-03T22:43:22.903Z,101169.31
2022-09-03T22:48:37.185Z,101175.50
2022-09-03T22:54:02.185Z,101170.25
2022-09-03T22:59:11.175Z,101167.66
2022-09-03T23:04:23.159Z,101169.41
2022-09-03T23:09:35.733Z,101174.69
2022-09-03T23:14:51.432Z,101177.34
2022-09-03T23:25:12.182Z,101199.34
2022-09-03T23:30:16.742Z,101202.81
2022-09-03T23:35:22.156Z,101201.09
2022-09-03T23:40:40.819Z,101205.47
2022-09-03T23:45:54.605Z,101205.47
2022-09-03T23:51:07.420Z,101209.00
2022-09-03T23:56:38.047Z,101212.44
